createdAt,value
2024-03-02T00:01:24.030Z,20.15
2024-03-02T00:04:25.990Z,18.45
2024-03-02T00:07:27.671Z,17.10
2024-03-02T00:10:40.807Z,16.77
2024-03-02T00:13:42.656Z,16.63
2024-03-02T00:16:44.320Z,17.75
2024-03-02T00:19:46.455Z,15.63
2024-03-02T00:22:50.734Z,17.42
2024-03-02T00:25:55.792Z,16.70
2024-03-02T00:28:57.523Z,17.48
2024-03-02T00:31:59.627Z,16.63
2024-03-02T00:35:01.950Z,16.20
2024-03-02T00:38:07.502Z,15.75
2024-03-02T00:41:16.493Z,16.88
2024-03-02T00:44:21.532Z,15.93
2024-03-02T00:47:23.225Z,17.90
2024-03-02T00:50:30.734Z,16.08
2024-03-02T00:53:33.473Z,15.25
2024-03-02T00:56:35.347Z,18.10
2024-03-02T00:59:37.573Z,16.98
2024-03-02T01:02:39.212Z,17.58
2024-03-02T01:05:45.259Z,17.30
2024-03-02T01:08:47.377Z,16.70
2024-03-02T01:11:49.029Z,15.82
2024-03-02T01:14:51.620Z,17.23
2024-03-02T01:17:55.645Z,16.20
2024-03-02T01:20:58.525Z,15.85
2024-03-02T01:24:00.805Z,17.55
2024-03-02T01:27:02.593Z,17.63
2024-03-02T01:30:05.324Z,18.55
2024-03-02T01:33:07.366Z,17.48
2024-03-02T01:36:09.162Z,21.50
2024-03-02T01:39:10.846Z,17.85
2024-03-02T01:42:12.500Z,18.98
2024-03-02T01:45:15.034Z,20.17
2024-03-02T01:48:16.800Z,19.17
2024-03-02T01:51:19.821Z,19.65
2024-03-02T01:54:23.365Z,18.05
2024-03-02T01:57:26.056Z,18.75
2024-03-02T02:00:28.770Z,17.95
2024-03-02T02:03:30.568Z,17.33
2024-03-02T02:06:32.939Z,19.27
2024-03-02T02:09:35.243Z,18.30
2024-03-02T02:12:38.003Z,18.33
2024-03-02T02:15:40.307Z,18.65
2024-03-02T02:18:42.023Z,15.80
2024-03-02T02:21:44.401Z,17.98
2024-03-02T02:24:46.224Z,20.85
2024-03-02T02:27:47.882Z,19.05
2024-03-02T02:30:50.815Z,18.90
2024-03-02T02:33:52.771Z,18.38
2024-03-02T02:36:54.871Z,19.98
2024-03-02T02:39:57.516Z,19.50
2024-03-02T02:43:00.127Z,20.65
2024-03-02T02:46:02.034Z,19.50
2024-03-02T02:49:04.897Z,19.30
2024-03-02T02:52:06.626Z,18.38
2024-03-02T02:55:14.258Z,18.65
2024-03-02T02:58:16.395Z,20.40
2024-03-02T03:01:18.721Z,18.50
2024-03-02T03:04:20.421Z,21.08
2024-03-02T03:07:22.653Z,22.85
2024-03-02T03:10:24.330Z,21.50
2024-03-02T03:13:26.043Z,20.80
2024-03-02T03:16:28.286Z,19.33
2024-03-02T03:19:30.004Z,19.17
2024-03-02T03:22:33.597Z,20.77
2024-03-02T03:25:35.231Z,19.55
2024-03-02T03:28:36.917Z,24.08
2024-03-02T03:31:39.176Z,20.60
2024-03-02T03:34:40.905Z,21.42
2024-03-02T03:37:43.649Z,21.15
2024-03-02T03:40:45.308Z,21.85
2024-03-02T03:43:47.444Z,21.45
2024-03-02T03:46:49.160Z,21.13
2024-03-02T03:49:50.797Z,21.30
2024-03-02T03:52:53.506Z,21.20
2024-03-02T03:55:55.147Z,20.25
2024-03-02T03:58:57.732Z,19.98
2024-03-02T04:02:00.045Z,20.50
2024-03-02T04:05:01.685Z,20.90
2024-03-02T04:08:04.655Z,22.13
2024-03-02T04:11:06.928Z,21.42
2024-03-02T04:14:08.603Z,22.48
2024-03-02T04:17:11.425Z,21.88
2024-03-02T04:20:13.196Z,24.15
2024-03-02T04:23:15.310Z,23.13
2024-03-02T04:26:17.539Z,22.33
2024-03-02T04:29:19.236Z,18.92
2024-03-02T04:32:22.062Z,20.33
2024-03-02T04:35:23.750Z,20.52
2024-03-02T04:38:25.825Z,23.65
2024-03-02T04:41:27.505Z,22.08
2024-03-02T04:44:29.124Z,23.55
2024-03-02T04:47:31.268Z,23.48
2024-03-02T04:50:33.000Z,23.83
2024-03-02T04:53:35.085Z,23.70
2024-03-02T04:56:36.810Z,23.98
2024-03-02T04:59:38.434Z,24.60
2024-03-02T05:02:41.096Z,24.75
2024-03-02T05:05:43.117Z,25.13
2024-03-02T05:08:44.740Z,25.90
2024-03-02T05:11:46.910Z,25.20
2024-03-02T05:14:48.556Z,27.27
2024-03-02T05:17:51.313Z,24.23
2024-03-02T05:20:53.622Z,24.17
2024-03-02T05:23:55.261Z,23.23
2024-03-02T05:26:58.018Z,25.50
2024-03-02T05:30:01.002Z,23.75
2024-03-02T05:33:02.791Z,23.42
2024-03-02T05:36:05.845Z,23.83
2024-03-02T05:39:07.477Z,22.33
2024-03-02T05:42:10.165Z,24.20
2024-03-02T05:45:12.425Z,25.45
2024-03-02T05:48:14.066Z,26.80
2024-03-02T05:51:16.405Z,25.42
2024-03-02T05:54:18.717Z,24.40
2024-03-02T05:57:21.007Z,23.90
2024-03-02T06:00:23.263Z,21.88
2024-03-02T06:03:24.901Z,23.73
2024-03-02T06:06:27.678Z,22.75
2024-03-02T06:09:29.937Z,23.35
2024-03-02T06:12:32.574Z,23.08
2024-03-02T06:15:35.355Z,22.65
2024-03-02T06:18:37.126Z,27.02
2024-03-02T06:21:39.458Z,26.67
2024-03-02T06:24:41.621Z,26.45
2024-03-02T06:27:43.280Z,27.80
2024-03-02T06:30:45.086Z,23.10
2024-03-02T06:33:47.017Z,20.80
2024-03-02T06:36:48.799Z,21.73
2024-03-02T06:39:51.122Z,23.02
2024-03-02T06:42:52.870Z,20.90
2024-03-02T06:45:55.103Z,21.00
2024-03-02T06:48:57.018Z,22.08
2024-03-02T06:51:58.857Z,24.02
2024-03-02T06:55:01.741Z,22.05
2024-03-02T06:58:03.590Z,21.98
2024-03-02T07:01:06.433Z,27.23
2024-03-02T07:04:08.178Z,27.58
2024-03-02T07:07:09.909Z,37.35
2024-03-02T07:10:11.859Z,26.40
2024-03-02T07:13:13.561Z,24.30
2024-03-02T07:16:15.410Z,23.38
2024-03-02T07:19:17.126Z,22.23
2024-03-02T07:22:19.031Z,20.40
2024-03-02T07:28:25.582Z,22.45
2024-03-02T07:31:27.433Z,21.77
2024-03-02T07:34:29.447Z,23.05
2024-03-02T07:37:31.165Z,23.13
2024-03-02T07:40:33.146Z,21.10
2024-03-02T07:43:34.895Z,22.27
2024-03-02T07:46:37.069Z,20.02
2024-03-02T07:49:39.310Z,21.17
2024-03-02T07:52:41.289Z,22.20
2024-03-02T07:55:43.268Z,19.67
2024-03-02T07:58:44.897Z,20.33
2024-03-02T08:01:47.044Z,19.70
2024-03-02T08:04:49.118Z,20.92
2024-03-02T08:07:50.799Z,21.58
2024-03-02T08:10:52.792Z,21.20
2024-03-02T08:13:54.619Z,20.33
2024-03-02T08:16:56.714Z,22.83
2024-03-02T08:19:58.977Z,22.98
2024-03-02T08:23:01.052Z,21.05
2024-03-02T08:26:02.899Z,20.42
2024-03-02T08:29:04.799Z,21.17
2024-03-02T08:32:07.227Z,20.27
2024-03-02T08:35:08.992Z,22.58
2024-03-02T08:38:10.854Z,19.70
2024-03-02T08:41:12.529Z,20.25
2024-03-02T08:44:14.798Z,18.35
2024-03-02T08:47:16.706Z,19.65
2024-03-02T08:50:18.663Z,19.67
2024-03-02T08:53:20.657Z,17.85
2024-03-02T08:56:22.339Z,18.98
2024-03-02T08:59:24.367Z,18.23
2024-03-02T09:02:26.105Z,18.50
2024-03-02T09:05:28.028Z,18.80
2024-03-02T09:08:29.717Z,16.85
2024-03-02T09:11:31.838Z,18.55
2024-03-02T09:14:33.731Z,17.23
2024-03-02T09:17:35.478Z,17.42
2024-03-02T09:20:37.303Z,18.33
2024-03-02T09:23:38.960Z,17.88
2024-03-02T09:26:40.642Z,16.35
2024-03-02T09:29:42.637Z,14.75
2024-03-02T09:32:45.034Z,17.33
2024-03-02T09:35:47.900Z,16.65
2024-03-02T09:38:49.772Z,15.63
2024-03-02T09:41:51.807Z,15.02
2024-03-02T09:44:54.025Z,14.23
2024-03-02T09:47:56.273Z,13.15
2024-03-02T09:50:58.123Z,11.85
2024-03-02T09:54:09.781Z,14.60
2024-03-02T09:57:20.010Z,13.38
2024-03-02T10:00:22.074Z,11.50
2024-03-02T10:03:28.850Z,14.35
2024-03-02T10:06:30.724Z,12.25
2024-03-02T10:09:32.456Z,13.23
2024-03-02T10:12:34.515Z,12.60
2024-03-02T10:15:36.953Z,11.07
2024-03-02T10:18:39.014Z,11.73
2024-03-02T10:21:41.578Z,12.73
2024-03-02T10:24:44.940Z,14.75
2024-03-02T10:27:51.395Z,13.60
2024-03-02T10:30:53.802Z,12.02
2024-03-02T10:33:56.431Z,11.93
2024-03-02T10:36:58.813Z,12.38
2024-03-02T10:40:06.276Z,14.18
2024-03-02T10:43:08.990Z,13.00
2024-03-02T10:46:12.231Z,12.10
2024-03-02T10:49:14.409Z,12.23
2024-03-02T10:52:16.119Z,12.05
2024-03-02T10:55:18.391Z,14.07
2024-03-02T10:58:20.660Z,12.80
2024-03-02T11:01:23.146Z,13.32
2024-03-02T11:04:26.372Z,12.85
2024-03-02T11:07:29.328Z,12.27
2024-03-02T11:10:51.424Z,11.70
2024-03-02T11:13:56.498Z,11.80
2024-03-02T11:16:58.981Z,11.27
2024-03-02T11:20:01.454Z,12.30
2024-03-02T11:23:07.761Z,12.70
2024-03-02T11:26:23.021Z,13.27
2024-03-02T11:29:36.716Z,12.55
2024-03-02T11:32:38.741Z,12.82
2024-03-02T11:35:45.423Z,13.75
2024-03-02T11:38:47.775Z,11.45
2024-03-02T11:41:50.148Z,11.43
2024-03-02T11:44:52.275Z,11.20
2024-03-02T11:47:58.782Z,12.18
2024-03-02T11:51:02.436Z,13.77
2024-03-02T11:54:05.251Z,13.07
2024-03-02T11:57:10.300Z,12.13
2024-03-02T12:00:18.848Z,13.68
2024-03-02T12:03:23.279Z,13.32
2024-03-02T12:06:25.242Z,13.00
2024-03-02T12:09:30.677Z,12.32
2024-03-02T12:12:32.482Z,12.48
2024-03-02T12:15:36.569Z,12.13
2024-03-02T12:18:38.329Z,13.45
2024-03-02T12:21:40.513Z,13.98
2024-03-02T12:24:43.455Z,13.80
2024-03-02T12:27:46.246Z,13.40
2024-03-02T12:30:48.009Z,14.15
2024-03-02T12:33:50.211Z,13.30
2024-03-02T12:36:52.004Z,13.85
2024-03-02T12:39:54.268Z,19.90
2024-03-02T12:42:56.100Z,13.95
2024-03-02T12:45:57.994Z,17.83
2024-03-02T12:49:08.181Z,13.85
2024-03-02T12:52:12.675Z,13.13
2024-03-02T12:55:14.526Z,11.68
2024-03-02T12:58:24.213Z,12.68
2024-03-02T13:04:29.470Z,13.07
2024-03-02T13:10:33.946Z,12.75
2024-03-02T13:13:35.680Z,12.82
2024-03-02T13:16:47.116Z,12.82
2024-03-02T13:20:00.428Z,11.68
2024-03-02T13:23:02.308Z,11.63
2024-03-02T13:26:04.313Z,12.63
2024-03-02T13:29:06.328Z,11.65
2024-03-02T13:32:08.135Z,12.32
2024-03-02T13:35:09.851Z,10.65
2024-03-02T13:38:11.571Z,11.18
2024-03-02T13:41:13.438Z,11.82
2024-03-02T13:44:15.462Z,11.35
2024-03-02T13:47:17.512Z,11.38
2024-03-02T13:50:19.802Z,11.10
2024-03-02T13:53:22.024Z,11.88
2024-03-02T13:56:23.706Z,11.43
2024-03-02T13:59:26.271Z,11.93
2024-03-02T14:02:27.973Z,10.45
2024-03-02T14:05:30.129Z,12.30
2024-03-02T14:08:32.499Z,10.73
2024-03-02T14:11:34.567Z,11.13
2024-03-02T14:14:36.343Z,10.32
2024-03-02T14:17:38.276Z,10.93
2024-03-02T14:20:41.060Z,10.13
2024-03-02T14:23:43.606Z,10.52
2024-03-02T14:26:46.944Z,9.75
2024-03-02T14:29:49.044Z,10.65
2024-03-02T14:32:50.781Z,23.48
2024-03-02T14:35:52.736Z,9.45
2024-03-02T14:38:54.900Z,9.65
2024-03-02T14:41:56.579Z,9.15
2024-03-02T14:44:58.289Z,9.07
2024-03-02T14:48:00.432Z,9.77
2024-03-02T14:51:02.706Z,9.57
2024-03-02T14:54:04.740Z,8.68
2024-03-02T14:57:06.456Z,8.43
2024-03-02T15:00:08.534Z,8.95
2024-03-02T15:03:10.241Z,9.13
2024-03-02T15:06:11.935Z,10.85
2024-03-02T15:09:13.664Z,8.55
2024-03-02T15:12:15.365Z,7.68
2024-03-02T15:15:17.208Z,7.75
2024-03-02T15:18:19.202Z,8.10
2024-03-02T15:21:21.735Z,8.32
2024-03-02T15:24:24.625Z,8.98
2024-03-02T15:27:26.399Z,7.65
2024-03-02T15:30:28.828Z,8.35
2024-03-02T15:33:31.113Z,7.50
2024-03-02T15:36:33.177Z,7.93
2024-03-02T15:39:35.355Z,7.05
2024-03-02T15:42:37.143Z,7.38
2024-03-02T15:45:39.461Z,7.93
2024-03-02T15:48:41.251Z,7.05
2024-03-02T15:51:43.317Z,7.30
2024-03-02T15:54:46.750Z,6.68
2024-03-02T15:57:48.709Z,7.38
2024-03-02T16:00:50.483Z,8.13
2024-03-02T16:03:53.035Z,7.75
2024-03-02T16:06:54.785Z,7.28
2024-03-02T16:09:57.400Z,7.18
2024-03-02T16:12:59.171Z,7.35
2024-03-02T16:16:01.003Z,17.55
2024-03-02T16:19:06.137Z,46.53
2024-03-02T16:22:10.590Z,12.75
2024-03-02T16:25:12.715Z,8.10
2024-03-02T16:28:14.494Z,8.48
2024-03-02T16:31:16.748Z,8.00
2024-03-02T16:34:18.484Z,8.30
2024-03-02T16:37:20.241Z,7.90
2024-03-02T16:40:21.938Z,38.58
2024-03-02T16:43:24.257Z,13.45
2024-03-02T16:46:25.919Z,9.52
2024-03-02T16:49:27.595Z,9.23
2024-03-02T16:52:29.401Z,9.95
2024-03-02T16:55:31.111Z,10.48
2024-03-02T16:58:33.403Z,10.02
2024-03-02T17:01:35.935Z,40.40
2024-03-02T17:04:37.852Z,14.77
2024-03-02T17:07:39.889Z,10.73
2024-03-02T17:10:42.156Z,9.70
2024-03-02T17:13:43.841Z,10.95
2024-03-02T17:16:45.793Z,9.80
2024-03-02T17:19:47.507Z,10.85
2024-03-02T17:22:50.398Z,8.90
2024-03-02T17:25:52.551Z,10.02
2024-03-02T17:28:54.181Z,9.70
2024-03-02T17:31:56.413Z,9.85
2024-03-02T17:34:58.071Z,9.52
2024-03-02T17:38:00.229Z,9.80
2024-03-02T17:41:01.899Z,9.65
2024-03-02T17:44:03.604Z,37.67
2024-03-02T17:47:05.485Z,12.25
2024-03-02T17:50:07.510Z,9.48
2024-03-02T17:53:09.752Z,10.25
2024-03-02T17:56:11.699Z,11.05
2024-03-02T17:59:13.429Z,11.30
2024-03-02T18:02:15.162Z,10.20
2024-03-02T18:05:16.985Z,10.32
2024-03-02T18:08:19.169Z,10.00
2024-03-02T18:11:21.601Z,12.07
2024-03-02T18:14:23.258Z,11.40
2024-03-02T18:17:25.358Z,11.35
2024-03-02T18:20:27.166Z,12.63
2024-03-02T18:23:28.815Z,12.15
2024-03-02T18:26:30.577Z,10.25
2024-03-02T18:29:32.212Z,11.07
2024-03-02T18:32:34.407Z,11.98
2024-03-02T18:35:36.069Z,11.98
2024-03-02T18:38:37.724Z,11.57
2024-03-02T18:41:39.393Z,10.35
2024-03-02T18:44:41.035Z,10.93
2024-03-02T18:47:45.528Z,13.23
2024-03-02T18:50:47.545Z,11.10
2024-03-02T18:53:49.451Z,12.32
2024-03-02T18:56:51.383Z,12.02
2024-03-02T18:59:53.061Z,12.20
2024-03-02T19:02:55.290Z,11.20
2024-03-02T19:05:56.970Z,12.52
2024-03-02T19:08:59.232Z,9.95
2024-03-02T19:12:01.509Z,11.73
2024-03-02T19:15:03.469Z,11.95
2024-03-02T19:18:05.609Z,11.77
2024-03-02T19:21:07.666Z,11.07
2024-03-02T19:24:09.346Z,11.43
2024-03-02T19:27:11.955Z,11.63
2024-03-02T19:30:13.859Z,10.13
2024-03-02T19:33:16.023Z,10.63
2024-03-02T19:36:18.161Z,10.35
2024-03-02T19:39:19.797Z,10.80
2024-03-02T19:42:22.118Z,10.48
2024-03-02T19:45:23.892Z,12.23
2024-03-02T19:48:26.116Z,11.60
2024-03-02T19:51:27.834Z,11.68
2024-03-02T19:54:29.485Z,11.45
2024-03-02T19:57:31.774Z,12.15
2024-03-02T20:00:34.089Z,12.52
2024-03-02T20:03:35.844Z,12.13
2024-03-02T20:06:38.336Z,12.75
2024-03-02T20:09:40.024Z,11.88
2024-03-02T20:12:42.170Z,9.90
2024-03-02T20:15:43.900Z,10.77
2024-03-02T20:18:45.592Z,11.02
2024-03-02T20:21:47.311Z,11.85
2024-03-02T20:24:49.053Z,13.65
2024-03-02T20:27:50.785Z,13.35
2024-03-02T20:30:52.499Z,13.10
2024-03-02T20:33:54.193Z,15.38
2024-03-02T20:36:56.727Z,14.02
2024-03-02T20:39:58.486Z,13.93
2024-03-02T20:43:03.789Z,15.02
2024-03-02T20:46:05.517Z,14.27
2024-03-02T20:49:07.367Z,15.10
2024-03-02T20:52:10.795Z,15.60
2024-03-02T20:55:12.703Z,16.10
2024-03-02T20:58:15.007Z,15.73
2024-03-02T21:01:17.271Z,15.02
2024-03-02T21:04:19.036Z,14.57
2024-03-02T21:07:21.428Z,15.25
2024-03-02T21:10:23.218Z,16.55
2024-03-02T21:13:25.514Z,16.15
2024-03-02T21:16:27.244Z,15.70
2024-03-02T21:19:28.979Z,16.90
2024-03-02T21:22:31.399Z,15.88
2024-03-02T21:25:33.704Z,14.25
2024-03-02T21:28:35.341Z,14.32
2024-03-02T21:31:37.680Z,15.75
2024-03-02T21:34:41.169Z,13.30
2024-03-02T21:37:43.456Z,16.15
2024-03-02T21:40:45.111Z,16.13
2024-03-02T21:43:46.749Z,15.27
2024-03-02T21:46:48.418Z,16.50
2024-03-02T21:49:50.614Z,16.45
2024-03-02T21:52:52.257Z,16.60
2024-03-02T21:55:53.949Z,16.05
2024-03-02T21:58:55.599Z,19.00
2024-03-02T22:01:58.397Z,19.52
2024-03-02T22:05:00.701Z,16.70
2024-03-02T22:08:02.434Z,16.10
2024-03-02T22:11:04.290Z,16.85
2024-03-02T22:14:06.065Z,16.35
2024-03-02T22:17:07.740Z,14.60
2024-03-02T22:20:10.113Z,17.30
2024-03-02T22:23:11.792Z,17.38
2024-03-02T22:26:13.798Z,14.32
2024-03-02T22:29:15.886Z,14.57
2024-03-02T22:32:17.522Z,14.32
2024-03-02T22:35:22.521Z,13.65
2024-03-02T22:38:25.470Z,12.82
2024-03-02T22:41:27.413Z,14.52
2024-03-02T22:44:29.537Z,14.73
2024-03-02T22:47:31.276Z,13.52
2024-03-02T22:50:32.971Z,15.80
2024-03-02T22:53:34.799Z,13.02
2024-03-02T22:56:36.462Z,13.88
2024-03-02T22:59:38.558Z,15.15
2024-03-02T23:02:40.209Z,13.73
2024-03-02T23:05:42.928Z,14.23
2024-03-02T23:08:44.590Z,13.25
2024-03-02T23:11:46.220Z,14.02
2024-03-02T23:14:47.909Z,13.82
2024-03-02T23:17:49.588Z,14.32
2024-03-02T23:20:51.461Z,12.93
2024-03-02T23:23:53.587Z,12.95
2024-03-02T23:26:55.276Z,12.48
2024-03-02T23:29:56.948Z,14.18
2024-03-02T23:32:59.565Z,13.52
2024-03-02T23:36:01.232Z,12.85
2024-03-02T23:39:02.926Z,11.80
2024-03-02T23:42:04.673Z,12.05
2024-03-02T23:45:07.705Z,12.85
2024-03-02T23:48:10.389Z,12.90
2024-03-02T23:51:12.022Z,12.18
2024-03-02T23:54:14.307Z,11.20
2024-03-02T23:57:15.990Z,11.25
